Spokane, Washington
Current Conditions -  °F | °C
As of 7:53 AM on Thursday 23 Oct 2014 (Local Time) from KSFF Reporting Station
Light Rain Light Rain  
Wind Chill: 53°   Ceiling: 6000
Heat Index: 53°   Visibility: 9mi
Dew Point: 48°   Wind: 6mph
Humidity: 83%   Direction: 220°SW
Pressure: 29.8"   Gusts: NA
Location:  47.66°N, 117.41°W
Report Text: KSFF 231453Z 22005KT 9SM -RA FEW031 SCT047 OVC060 12/09 A2980 RMK AO2 RAB11 SLP091 P0001 60001 T01170089 53005
Loading
Personal Weather Stations






























Interactive Weather Map
Tropical Storm Tracking
New forecast layout! Learn more

10-Day Weather Forecast

Advertisements
Track Severe Weather on mobile